JLY1508 LGSK-LQSA
Flight info
| Callsign | JLY1508 |
|---|---|
| Flight time | 1h 8m |
| Altitude | 38000 |
| Route | TSL UN130 TALAS DCT LONTA DCT KEB |
| Aircraft | A320/M-SDE3FGHIRWY/LB1 |
Departure
| Time | 2026-04-27 00:55 |
|---|---|
| Airport | Skiathos Island National Airport (LGSK) |
Arrival
| Time | 2026-04-27 02:03 |
|---|---|
| Airport | Sarajevo International Airport (LQSA) |
| Time | Latitude | Longitude | Altitude | Speed | Heading |
|---|---|---|---|---|---|
| 2026-04-27 00:41 | 39.17671 | 23.50217 | 36 ft | 0 kts | 292° |
| 2026-04-27 00:50 | 39.17674 | 23.50240 | 34 ft | 4 kts | 193° |
| 2026-04-27 00:50 | 39.17677 | 23.50241 | 35 ft | 1 kts | 194° |
| 2026-04-27 00:52 | 39.17676 | 23.50240 | 34 ft | 1 kts | 194° |
| 2026-04-27 00:52 | 39.17618 | 23.50216 | 35 ft | 13 kts | 198° |
| 2026-04-27 00:53 | 39.17546 | 23.50257 | 34 ft | 11 kts | 143° |
| 2026-04-27 00:53 | 39.17469 | 23.50250 | 32 ft | 13 kts | 199° |
| 2026-04-27 00:53 | 39.17367 | 23.50206 | 29 ft | 18 kts | 199° |
| 2026-04-27 00:53 | 39.17226 | 23.50141 | 22 ft | 24 kts | 199° |
| 2026-04-27 00:54 | 39.17086 | 23.50066 | 18 ft | 21 kts | 208° |
| 2026-04-27 00:54 | 39.17038 | 23.50065 | 16 ft | 4 kts | 83° |
| 2026-04-27 00:54 | 39.17088 | 23.50080 | 21 ft | 27 kts | 16° |
| 2026-04-27 00:54 | 39.17553 | 23.50288 | 36 ft | 110 kts | 19° |
| 2026-04-27 00:55 | 39.18480 | 23.50687 | 152 ft | 159 kts | 18° |
| 2026-04-27 00:55 | 39.19482 | 23.51126 | 958 ft | 153 kts | 18° |
| 2026-04-27 00:55 | 39.20528 | 23.51591 | 1405 ft | 168 kts | 18° |
| 2026-04-27 00:55 | 39.21724 | 23.52067 | 1724 ft | 191 kts | 7° |
| 2026-04-27 00:56 | 39.23116 | 23.51808 | 2047 ft | 216 kts | 343° |
| 2026-04-27 00:56 | 39.24622 | 23.51165 | 2491 ft | 241 kts | 341° |
| 2026-04-27 00:56 | 39.26258 | 23.50407 | 3169 ft | 254 kts | 341° |
| 2026-04-27 00:56 | 39.27939 | 23.49628 | 4083 ft | 259 kts | 342° |
| 2026-04-27 00:57 | 39.29653 | 23.48854 | 5026 ft | 262 kts | 342° |
| 2026-04-27 00:57 | 39.31391 | 23.48089 | 5929 ft | 267 kts | 343° |
| 2026-04-27 00:57 | 39.33165 | 23.47326 | 6799 ft | 271 kts | 343° |
| 2026-04-27 00:57 | 39.34950 | 23.46569 | 7642 ft | 275 kts | 343° |
| 2026-04-27 00:58 | 39.36780 | 23.45797 | 8512 ft | 278 kts | 343° |
| 2026-04-27 00:58 | 39.38630 | 23.45016 | 9389 ft | 282 kts | 343° |
| 2026-04-27 00:58 | 39.40506 | 23.44223 | 10213 ft | 287 kts | 343° |
| 2026-04-27 00:58 | 39.42481 | 23.43389 | 10530 ft | 310 kts | 342° |
| 2026-04-27 00:59 | 39.44593 | 23.42499 | 10945 ft | 326 kts | 342° |
| 2026-04-27 00:59 | 39.46772 | 23.41581 | 11626 ft | 332 kts | 342° |
| 2026-04-27 00:59 | 39.48981 | 23.40645 | 12397 ft | 336 kts | 342° |
| 2026-04-27 00:59 | 39.51215 | 23.39697 | 13164 ft | 340 kts | 342° |
| 2026-04-27 01:00 | 39.53445 | 23.38751 | 13891 ft | 344 kts | 341° |
| 2026-04-27 01:00 | 39.55763 | 23.37766 | 14568 ft | 348 kts | 341° |
| 2026-04-27 01:00 | 39.59139 | 23.36332 | 15583 ft | 351 kts | 341° |
| 2026-04-27 01:00 | 39.63816 | 23.34351 | 16978 ft | 355 kts | 340° |
| 2026-04-27 01:01 | 39.68543 | 23.32340 | 18351 ft | 360 kts | 340° |
| 2026-04-27 01:01 | 39.73338 | 23.30294 | 19506 ft | 365 kts | 340° |
| 2026-04-27 01:01 | 39.78216 | 23.28218 | 20649 ft | 371 kts | 340° |
| 2026-04-27 01:01 | 39.83160 | 23.26104 | 21775 ft | 378 kts | 340° |
| 2026-04-27 01:02 | 39.88198 | 23.23948 | 22906 ft | 384 kts | 340° |
| 2026-04-27 01:02 | 39.93306 | 23.21758 | 23922 ft | 390 kts | 340° |
| 2026-04-27 01:02 | 39.98428 | 23.19555 | 24771 ft | 395 kts | 339° |
| 2026-04-27 01:02 | 40.03683 | 23.17289 | 25598 ft | 401 kts | 339° |
| 2026-04-27 01:03 | 40.09004 | 23.14998 | 26387 ft | 406 kts | 339° |
| 2026-04-27 01:03 | 40.14400 | 23.12675 | 27138 ft | 411 kts | 339° |
| 2026-04-27 01:03 | 40.19866 | 23.10309 | 27885 ft | 416 kts | 339° |
| 2026-04-27 01:03 | 40.25377 | 23.07923 | 28596 ft | 421 kts | 339° |
| 2026-04-27 01:04 | 40.30983 | 23.05498 | 29263 ft | 426 kts | 339° |
| 2026-04-27 01:04 | 40.36636 | 23.03056 | 29925 ft | 430 kts | 339° |
| 2026-04-27 01:04 | 40.42309 | 23.00435 | 30485 ft | 433 kts | 333° |
| 2026-04-27 01:04 | 40.47247 | 22.95995 | 30988 ft | 432 kts | 314° |
| 2026-04-27 01:05 | 40.50430 | 22.90984 | 31392 ft | 434 kts | 306° |
| 2026-04-27 01:05 | 40.52261 | 22.87835 | 31641 ft | 435 kts | 306° |
| 2026-04-27 01:05 | 40.54106 | 22.84682 | 31983 ft | 434 kts | 306° |
| 2026-04-27 01:05 | 40.55920 | 22.81591 | 32323 ft | 433 kts | 306° |
| 2026-04-27 01:06 | 40.57758 | 22.78460 | 32658 ft | 432 kts | 306° |
| 2026-04-27 01:06 | 40.59592 | 22.75330 | 33004 ft | 431 kts | 306° |
| 2026-04-27 01:06 | 40.61416 | 22.72206 | 33339 ft | 430 kts | 306° |
| 2026-04-27 01:06 | 40.63232 | 22.69084 | 33674 ft | 430 kts | 306° |
| 2026-04-27 01:07 | 40.65049 | 22.65956 | 34025 ft | 429 kts | 306° |
| 2026-04-27 01:07 | 40.66854 | 22.62843 | 34328 ft | 428 kts | 306° |
| 2026-04-27 01:07 | 40.68660 | 22.59727 | 34633 ft | 427 kts | 306° |
| 2026-04-27 01:07 | 40.70432 | 22.56665 | 34918 ft | 426 kts | 306° |
| 2026-04-27 01:08 | 40.72229 | 22.53558 | 35204 ft | 425 kts | 306° |
| 2026-04-27 01:08 | 40.74019 | 22.50463 | 35479 ft | 424 kts | 306° |
| 2026-04-27 01:08 | 40.75806 | 22.47368 | 35745 ft | 423 kts | 306° |
| 2026-04-27 01:08 | 40.77584 | 22.44282 | 36009 ft | 422 kts | 306° |
| 2026-04-27 01:09 | 40.79360 | 22.41199 | 36264 ft | 422 kts | 306° |
| 2026-04-27 01:09 | 40.81132 | 22.38119 | 36509 ft | 421 kts | 306° |
| 2026-04-27 01:09 | 40.82904 | 22.35039 | 36744 ft | 421 kts | 306° |
| 2026-04-27 01:09 | 40.84668 | 22.31966 | 36971 ft | 420 kts | 306° |
| 2026-04-27 01:10 | 40.86409 | 22.28930 | 37198 ft | 420 kts | 306° |
| 2026-04-27 01:10 | 40.88168 | 22.25866 | 37420 ft | 419 kts | 306° |
| 2026-04-27 01:10 | 40.89930 | 22.22796 | 37646 ft | 418 kts | 306° |
| 2026-04-27 01:10 | 40.91685 | 22.19736 | 37866 ft | 418 kts | 306° |
| 2026-04-27 01:11 | 40.93438 | 22.16673 | 38087 ft | 417 kts | 306° |
| 2026-04-27 01:11 | 40.96938 | 22.10545 | 38167 ft | 417 kts | 306° |
| 2026-04-27 01:12 | 41.00404 | 22.04463 | 38172 ft | 417 kts | 306° |
| 2026-04-27 01:12 | 41.03893 | 21.98328 | 38186 ft | 417 kts | 306° |
| 2026-04-27 01:13 | 41.07839 | 21.92723 | 38192 ft | 419 kts | 321° |
| 2026-04-27 01:13 | 41.13006 | 21.89138 | 38204 ft | 424 kts | 338° |
| 2026-04-27 01:14 | 41.18568 | 21.86523 | 38207 ft | 424 kts | 338° |
| 2026-04-27 01:14 | 41.24139 | 21.83891 | 38214 ft | 425 kts | 338° |
| 2026-04-27 01:15 | 41.29667 | 21.81272 | 38219 ft | 425 kts | 338° |
| 2026-04-27 01:15 | 41.35232 | 21.78620 | 38223 ft | 425 kts | 338° |
| 2026-04-27 01:16 | 41.40797 | 21.75970 | 38226 ft | 425 kts | 338° |
| 2026-04-27 01:16 | 41.46364 | 21.73319 | 38227 ft | 425 kts | 338° |
| 2026-04-27 01:17 | 41.51891 | 21.70678 | 38229 ft | 425 kts | 338° |
| 2026-04-27 01:17 | 41.57456 | 21.68021 | 38231 ft | 425 kts | 338° |
| 2026-04-27 01:18 | 41.63021 | 21.65354 | 38229 ft | 425 kts | 338° |
| 2026-04-27 01:18 | 41.68578 | 21.62675 | 38227 ft | 425 kts | 338° |
| 2026-04-27 01:19 | 41.74137 | 21.59998 | 38224 ft | 424 kts | 338° |
| 2026-04-27 01:19 | 41.79654 | 21.57345 | 38219 ft | 424 kts | 338° |
| 2026-04-27 01:20 | 41.85225 | 21.54655 | 38218 ft | 424 kts | 338° |
| 2026-04-27 01:20 | 41.90766 | 21.51971 | 38223 ft | 425 kts | 338° |
| 2026-04-27 01:21 | 41.96303 | 21.49288 | 38225 ft | 425 kts | 338° |
| 2026-04-27 01:21 | 42.01868 | 21.46590 | 38228 ft | 425 kts | 338° |
| 2026-04-27 01:22 | 42.07425 | 21.43884 | 38235 ft | 425 kts | 338° |
| 2026-04-27 01:22 | 42.12925 | 21.41111 | 38239 ft | 423 kts | 332° |
| 2026-04-27 01:23 | 42.17736 | 21.36687 | 38239 ft | 418 kts | 314° |
| 2026-04-27 01:23 | 42.21561 | 21.30816 | 38243 ft | 417 kts | 309° |
| 2026-04-27 01:24 | 42.25329 | 21.24849 | 38244 ft | 417 kts | 309° |
| 2026-04-27 01:24 | 42.29086 | 21.18882 | 38247 ft | 417 kts | 309° |
| 2026-04-27 01:25 | 42.32816 | 21.12944 | 38248 ft | 417 kts | 309° |
| 2026-04-27 01:25 | 42.36567 | 21.06962 | 38252 ft | 417 kts | 309° |
| 2026-04-27 01:26 | 42.40314 | 21.00967 | 38255 ft | 417 kts | 309° |
| 2026-04-27 01:26 | 42.44056 | 20.94972 | 38256 ft | 417 kts | 309° |
| 2026-04-27 01:27 | 42.47795 | 20.88964 | 38256 ft | 417 kts | 309° |
| 2026-04-27 01:27 | 42.51529 | 20.82947 | 38257 ft | 417 kts | 308° |
| 2026-04-27 01:28 | 42.55236 | 20.76962 | 38254 ft | 417 kts | 308° |
| 2026-04-27 01:28 | 42.58972 | 20.70925 | 38257 ft | 417 kts | 308° |
| 2026-04-27 01:29 | 42.62705 | 20.64886 | 38255 ft | 417 kts | 308° |
| 2026-04-27 01:29 | 42.66430 | 20.58846 | 38258 ft | 417 kts | 308° |
| 2026-04-27 01:30 | 42.70127 | 20.52835 | 38260 ft | 417 kts | 308° |
| 2026-04-27 01:30 | 42.73841 | 20.46776 | 38260 ft | 417 kts | 308° |
| 2026-04-27 01:30 | 42.75702 | 20.43744 | 38119 ft | 418 kts | 308° |
| 2026-04-27 01:31 | 42.77563 | 20.40713 | 37735 ft | 416 kts | 308° |
| 2026-04-27 01:31 | 42.79408 | 20.37701 | 37104 ft | 414 kts | 308° |
| 2026-04-27 01:31 | 42.81252 | 20.34682 | 36469 ft | 414 kts | 308° |
| 2026-04-27 01:31 | 42.83098 | 20.31656 | 35730 ft | 416 kts | 308° |
| 2026-04-27 01:32 | 42.84946 | 20.28623 | 35099 ft | 416 kts | 308° |
| 2026-04-27 01:32 | 42.86757 | 20.25644 | 34631 ft | 412 kts | 308° |
| 2026-04-27 01:32 | 42.88580 | 20.22641 | 34091 ft | 410 kts | 308° |
| 2026-04-27 01:32 | 42.90393 | 20.19655 | 33555 ft | 406 kts | 309° |
| 2026-04-27 01:33 | 42.92186 | 20.16702 | 33040 ft | 403 kts | 309° |
| 2026-04-27 01:33 | 42.93964 | 20.13767 | 32549 ft | 400 kts | 309° |
| 2026-04-27 01:33 | 42.95725 | 20.10858 | 32034 ft | 397 kts | 309° |
| 2026-04-27 01:33 | 42.97478 | 20.07961 | 31532 ft | 394 kts | 309° |
| 2026-04-27 01:34 | 42.99218 | 20.05085 | 31050 ft | 391 kts | 309° |
| 2026-04-27 01:34 | 43.00923 | 20.02268 | 30575 ft | 389 kts | 309° |
| 2026-04-27 01:34 | 43.02646 | 19.99421 | 30054 ft | 387 kts | 309° |
| 2026-04-27 01:34 | 43.04352 | 19.96596 | 29567 ft | 383 kts | 309° |
| 2026-04-27 01:35 | 43.06038 | 19.93797 | 29105 ft | 379 kts | 309° |
| 2026-04-27 01:35 | 43.07706 | 19.91022 | 28652 ft | 376 kts | 309° |
| 2026-04-27 01:35 | 43.09354 | 19.88278 | 28212 ft | 373 kts | 309° |
| 2026-04-27 01:35 | 43.10997 | 19.85547 | 27780 ft | 370 kts | 309° |
| 2026-04-27 01:36 | 43.12626 | 19.82836 | 27356 ft | 366 kts | 309° |
| 2026-04-27 01:36 | 43.14235 | 19.80154 | 26937 ft | 363 kts | 309° |
| 2026-04-27 01:36 | 43.15814 | 19.77519 | 26528 ft | 360 kts | 309° |
| 2026-04-27 01:36 | 43.17391 | 19.74880 | 26114 ft | 357 kts | 309° |
| 2026-04-27 01:37 | 43.18961 | 19.72253 | 25701 ft | 354 kts | 309° |
| 2026-04-27 01:37 | 43.20517 | 19.69647 | 25278 ft | 352 kts | 309° |
| 2026-04-27 01:37 | 43.22060 | 19.67058 | 24843 ft | 350 kts | 309° |
| 2026-04-27 01:37 | 43.23597 | 19.64476 | 24419 ft | 349 kts | 309° |
| 2026-04-27 01:38 | 43.25110 | 19.61938 | 24002 ft | 348 kts | 309° |
| 2026-04-27 01:38 | 43.26638 | 19.59376 | 23496 ft | 347 kts | 309° |
| 2026-04-27 01:38 | 43.28159 | 19.56827 | 23058 ft | 344 kts | 309° |
| 2026-04-27 01:38 | 43.29670 | 19.54287 | 22617 ft | 342 kts | 309° |
| 2026-04-27 01:39 | 43.31186 | 19.51734 | 22175 ft | 340 kts | 309° |
| 2026-04-27 01:39 | 43.32656 | 19.49253 | 21743 ft | 338 kts | 309° |
| 2026-04-27 01:39 | 43.34139 | 19.46749 | 21317 ft | 337 kts | 309° |
| 2026-04-27 01:39 | 43.35617 | 19.44250 | 20888 ft | 336 kts | 309° |
| 2026-04-27 01:40 | 43.37087 | 19.41766 | 20457 ft | 335 kts | 309° |
| 2026-04-27 01:40 | 43.38555 | 19.39283 | 20039 ft | 334 kts | 309° |
| 2026-04-27 01:40 | 43.40016 | 19.36808 | 19609 ft | 334 kts | 309° |
| 2026-04-27 01:40 | 43.41482 | 19.34323 | 19186 ft | 333 kts | 309° |
| 2026-04-27 01:41 | 43.42941 | 19.31854 | 18767 ft | 333 kts | 309° |
| 2026-04-27 01:41 | 43.44403 | 19.29379 | 18321 ft | 333 kts | 309° |
| 2026-04-27 01:41 | 43.45855 | 19.26912 | 17896 ft | 331 kts | 309° |
| 2026-04-27 01:41 | 43.47279 | 19.24486 | 17485 ft | 329 kts | 309° |
| 2026-04-27 01:42 | 43.48713 | 19.22037 | 17073 ft | 327 kts | 309° |
| 2026-04-27 01:42 | 43.50133 | 19.19617 | 16677 ft | 326 kts | 309° |
| 2026-04-27 01:42 | 43.51563 | 19.17184 | 16280 ft | 325 kts | 309° |
| 2026-04-27 01:42 | 43.52856 | 19.14633 | 15893 ft | 324 kts | 299° |
| 2026-04-27 01:43 | 43.53744 | 19.11788 | 15497 ft | 324 kts | 287° |
| 2026-04-27 01:43 | 43.54372 | 19.08812 | 15105 ft | 323 kts | 287° |
| 2026-04-27 01:43 | 43.54997 | 19.05849 | 14722 ft | 322 kts | 287° |
| 2026-04-27 01:43 | 43.55624 | 19.02891 | 14330 ft | 321 kts | 287° |
| 2026-04-27 01:44 | 43.56253 | 18.99942 | 13925 ft | 321 kts | 287° |
| 2026-04-27 01:44 | 43.56884 | 18.96998 | 13508 ft | 319 kts | 287° |
| 2026-04-27 01:44 | 43.57509 | 18.94075 | 13110 ft | 317 kts | 287° |
| 2026-04-27 01:44 | 43.58128 | 18.91164 | 12722 ft | 315 kts | 287° |
| 2026-04-27 01:45 | 43.58737 | 18.88278 | 12326 ft | 313 kts | 287° |
| 2026-04-27 01:45 | 43.59337 | 18.85442 | 11933 ft | 311 kts | 288° |
| 2026-04-27 01:45 | 43.59939 | 18.82585 | 11542 ft | 310 kts | 288° |
| 2026-04-27 01:45 | 43.60538 | 18.79733 | 11135 ft | 308 kts | 288° |
| 2026-04-27 01:46 | 43.61132 | 18.76903 | 10736 ft | 307 kts | 288° |
| 2026-04-27 01:46 | 43.61719 | 18.74113 | 10530 ft | 298 kts | 288° |
| 2026-04-27 01:46 | 43.62288 | 18.71402 | 10262 ft | 292 kts | 288° |
| 2026-04-27 01:46 | 43.62864 | 18.68671 | 9644 ft | 298 kts | 288° |
| 2026-04-27 01:47 | 43.63440 | 18.65933 | 9225 ft | 296 kts | 288° |
| 2026-04-27 01:47 | 43.64007 | 18.63218 | 8817 ft | 294 kts | 287° |
| 2026-04-27 01:47 | 43.64563 | 18.60550 | 8419 ft | 292 kts | 287° |
| 2026-04-27 01:47 | 43.65119 | 18.57864 | 8012 ft | 290 kts | 287° |
| 2026-04-27 01:48 | 43.65672 | 18.55194 | 7607 ft | 289 kts | 286° |
| 2026-04-27 01:48 | 43.66034 | 18.52476 | 7212 ft | 288 kts | 275° |
| 2026-04-27 01:48 | 43.66009 | 18.49721 | 6785 ft | 287 kts | 263° |
| 2026-04-27 01:48 | 43.65667 | 18.47024 | 6424 ft | 284 kts | 253° |
| 2026-04-27 01:49 | 43.64691 | 18.44828 | 6304 ft | 258 kts | 217° |
| 2026-04-27 01:49 | 43.63148 | 18.43969 | 6234 ft | 229 kts | 178° |
| 2026-04-27 01:49 | 43.61593 | 18.44297 | 6166 ft | 227 kts | 170° |
| 2026-04-27 01:49 | 43.60052 | 18.44034 | 6112 ft | 229 kts | 209° |
| 2026-04-27 01:50 | 43.58999 | 18.42449 | 6041 ft | 228 kts | 251° |
| 2026-04-27 01:50 | 43.58760 | 18.41045 | 6117 ft | 225 kts | 257° |
| 2026-04-27 01:50 | 43.58369 | 18.38740 | 6810 ft | 236 kts | 258° |
| 2026-04-27 01:50 | 43.58335 | 18.36583 | 7546 ft | 212 kts | 288° |
| 2026-04-27 01:51 | 43.59069 | 18.35044 | 9169 ft | 181 kts | 328° |
| 2026-04-27 01:51 | 43.60321 | 18.34411 | 9573 ft | 226 kts | 354° |
| 2026-04-27 01:51 | 43.62002 | 18.34555 | 8894 ft | 253 kts | 13° |
| 2026-04-27 01:51 | 43.63694 | 18.35434 | 8187 ft | 268 kts | 31° |
| 2026-04-27 01:52 | 43.65073 | 18.37228 | 7468 ft | 280 kts | 53° |
| 2026-04-27 01:52 | 43.66240 | 18.39440 | 6728 ft | 291 kts | 55° |
| 2026-04-27 01:52 | 43.67404 | 18.41784 | 5926 ft | 301 kts | 57° |
| 2026-04-27 01:52 | 43.68551 | 18.44166 | 5561 ft | 297 kts | 57° |
| 2026-04-27 01:53 | 43.69605 | 18.46521 | 5486 ft | 280 kts | 65° |
| 2026-04-27 01:53 | 43.70103 | 18.49014 | 5428 ft | 263 kts | 85° |
| 2026-04-27 01:53 | 43.69989 | 18.51454 | 5366 ft | 248 kts | 103° |
| 2026-04-27 01:53 | 43.69373 | 18.53593 | 5315 ft | 234 kts | 120° |
| 2026-04-27 01:54 | 43.68364 | 18.55316 | 5247 ft | 223 kts | 137° |
| 2026-04-27 01:54 | 43.67116 | 18.56501 | 5204 ft | 222 kts | 153° |
| 2026-04-27 01:54 | 43.65692 | 18.57330 | 5155 ft | 222 kts | 159° |
| 2026-04-27 01:54 | 43.64233 | 18.58027 | 5107 ft | 222 kts | 161° |
| 2026-04-27 01:55 | 43.62762 | 18.58683 | 5058 ft | 222 kts | 162° |
| 2026-04-27 01:55 | 43.61240 | 18.59033 | 5005 ft | 223 kts | 178° |
| 2026-04-27 01:55 | 43.59747 | 18.58760 | 5587 ft | 222 kts | 192° |
| 2026-04-27 01:55 | 43.58308 | 18.57958 | 5434 ft | 224 kts | 211° |
| 2026-04-27 01:56 | 43.56250 | 18.54755 | 5324 ft | 226 kts | 248° |
| 2026-04-27 01:56 | 43.55849 | 18.52653 | 5282 ft | 228 kts | 265° |
| 2026-04-27 01:56 | 43.55919 | 18.50500 | 5222 ft | 229 kts | 283° |
| 2026-04-27 01:57 | 43.56465 | 18.48456 | 5161 ft | 226 kts | 301° |
| 2026-04-27 01:57 | 43.57388 | 18.46800 | 5111 ft | 213 kts | 319° |
| 2026-04-27 01:57 | 43.59063 | 18.45305 | 5035 ft | 205 kts | 338° |
| 2026-04-27 01:57 | 43.61076 | 18.44281 | 4964 ft | 203 kts | 343° |
| 2026-04-27 01:58 | 43.62414 | 18.43680 | 4919 ft | 202 kts | 343° |
| 2026-04-27 01:58 | 43.63746 | 18.43083 | 4870 ft | 202 kts | 343° |
| 2026-04-27 01:58 | 43.65079 | 18.42479 | 4820 ft | 201 kts | 343° |
| 2026-04-27 01:58 | 43.66404 | 18.41852 | 4772 ft | 202 kts | 337° |
| 2026-04-27 01:59 | 43.67627 | 18.40953 | 4724 ft | 202 kts | 332° |
| 2026-04-27 01:59 | 43.68866 | 18.40061 | 4658 ft | 201 kts | 338° |
| 2026-04-27 01:59 | 43.70198 | 18.39502 | 4615 ft | 200 kts | 351° |
| 2026-04-27 01:59 | 43.71537 | 18.39401 | 4557 ft | 186 kts | 5° |
| 2026-04-27 02:00 | 43.72787 | 18.39558 | 4287 ft | 175 kts | 5° |
| 2026-04-27 02:00 | 43.73955 | 18.39711 | 4043 ft | 163 kts | 5° |
| 2026-04-27 02:00 | 43.75036 | 18.39853 | 3821 ft | 151 kts | 4° |
| 2026-04-27 02:00 | 43.76064 | 18.39983 | 3602 ft | 146 kts | 5° |
| 2026-04-27 02:01 | 43.77071 | 18.40114 | 3383 ft | 144 kts | 5° |
| 2026-04-27 02:01 | 43.78050 | 18.40179 | 3180 ft | 142 kts | 355° |
| 2026-04-27 02:01 | 43.79010 | 18.39877 | 2963 ft | 142 kts | 338° |
| 2026-04-27 02:01 | 43.79859 | 18.39201 | 2752 ft | 141 kts | 321° |
| 2026-04-27 02:02 | 43.80526 | 18.38217 | 2520 ft | 141 kts | 304° |
| 2026-04-27 02:02 | 43.80981 | 18.37022 | 2292 ft | 139 kts | 296° |
| 2026-04-27 02:02 | 43.81433 | 18.35827 | 2071 ft | 139 kts | 299° |
| 2026-04-27 02:02 | 43.81889 | 18.34648 | 1834 ft | 138 kts | 298° |
| 2026-04-27 02:03 | 43.82329 | 18.33491 | 1692 ft | 129 kts | 297° |
| 2026-04-27 02:03 | 43.82681 | 18.32559 | 1674 ft | 85 kts | 297° |
| 2026-04-27 02:03 | 43.82863 | 18.32067 | 1669 ft | 35 kts | 296° |
| 2026-04-27 02:03 | 43.82927 | 18.31917 | 1653 ft | 3 kts | 235° |
| 2026-04-27 02:04 | 43.82911 | 18.31944 | 1654 ft | 10 kts | 122° |
| 2026-04-27 02:04 | 43.82854 | 18.32098 | 1662 ft | 25 kts | 117° |
| 2026-04-27 02:04 | 43.82767 | 18.32328 | 1671 ft | 27 kts | 117° |
| 2026-04-27 02:04 | 43.82684 | 18.32551 | 1675 ft | 26 kts | 117° |
| 2026-04-27 02:05 | 43.82601 | 18.32771 | 1675 ft | 25 kts | 118° |
| 2026-04-27 02:05 | 43.82522 | 18.32988 | 1680 ft | 25 kts | 114° |
| 2026-04-27 02:05 | 43.82527 | 18.33219 | 1677 ft | 24 kts | 68° |
| 2026-04-27 02:05 | 43.82553 | 18.33371 | 1679 ft | 15 kts | 104° |
| 2026-04-27 02:06 | 43.82509 | 18.33491 | 1686 ft | 13 kts | 116° |
| 2026-04-27 02:06 | 43.82471 | 18.33592 | 1693 ft | 11 kts | 120° |
| 2026-04-27 02:06 | 43.82471 | 18.33665 | 1689 ft | 6 kts | 29° |
| 2026-04-27 02:06 | 43.82496 | 18.33676 | 1688 ft | 5 kts | 19° |
| 2026-04-27 02:07 | 43.82527 | 18.33686 | 1689 ft | 4 kts | 347° |
| 2026-04-27 02:07 | 43.82526 | 18.33685 | 1689 ft | 0 kts | 304° |